createdAt,value
2023-03-12T00:01:24.273Z,-3.40
2023-03-12T00:03:51.319Z,-3.30
2023-03-12T00:06:19.795Z,-3.20
2023-03-12T00:08:46.973Z,-3.20
2023-03-12T00:11:19.492Z,-3.30
2023-03-12T00:13:52.905Z,-3.30
2023-03-12T00:16:20.379Z,-3.40
2023-03-12T00:18:52.247Z,-3.20
2023-03-12T00:21:21.040Z,-3.10
2023-03-12T00:24:37.884Z,-3.20
2023-03-12T00:27:04.583Z,-3.30
2023-03-12T00:29:31.333Z,-3.30
2023-03-12T00:31:57.943Z,-3.10
2023-03-12T00:34:24.569Z,-3.10
2023-03-12T00:39:32.848Z,-3.00
2023-03-12T00:41:59.481Z,-2.80
2023-03-12T00:44:26.276Z,-2.90
2023-03-12T00:46:53.213Z,-2.80
2023-03-12T00:49:19.833Z,-2.70
2023-03-12T00:51:46.685Z,-2.60
2023-03-12T00:54:13.398Z,-2.60
2023-03-12T00:56:39.996Z,-2.70
2023-03-12T00:59:09.787Z,-2.80
2023-03-12T01:01:36.416Z,-2.80
2023-03-12T01:04:03.505Z,-2.80
2023-03-12T01:06:30.456Z,-2.80
2023-03-12T01:08:57.545Z,-2.60
2023-03-12T01:11:24.635Z,-2.70
2023-03-12T01:13:51.325Z,-2.60
2023-03-12T01:16:18.193Z,-2.60
2023-03-12T01:18:45.005Z,-2.70
2023-03-12T01:21:11.705Z,-2.70
2023-03-12T01:23:38.606Z,-2.70
2023-03-12T01:26:05.241Z,-2.70
2023-03-12T01:28:32.012Z,-2.70
2023-03-12T01:30:58.668Z,-2.70
2023-03-12T01:33:25.359Z,-2.80
2023-03-12T01:35:52.089Z,-2.70
2023-03-12T01:38:20.652Z,-2.80
2023-03-12T01:40:47.237Z,-2.80
2023-03-12T01:43:31.796Z,-2.60
2023-03-12T01:46:26.700Z,-2.70
2023-03-12T01:49:09.431Z,-2.70
2023-03-12T01:51:50.297Z,-2.90
2023-03-12T01:54:25.100Z,-2.90
2023-03-12T01:56:54.051Z,-2.70
2023-03-12T01:59:26.150Z,-2.50
2023-03-12T02:01:53.178Z,-2.50
2023-03-12T02:04:23.729Z,-2.60
2023-03-12T02:07:05.022Z,-2.60
2023-03-12T02:09:36.757Z,-2.60
2023-03-12T02:12:04.521Z,-2.60
2023-03-12T02:14:32.115Z,-2.60
2023-03-12T02:16:59.137Z,-2.60
2023-03-12T02:19:48.638Z,-2.70
2023-03-12T02:22:15.914Z,-2.60
2023-03-12T02:24:54.522Z,-2.50
2023-03-12T02:27:22.535Z,-2.50
2023-03-12T02:29:50.154Z,-2.60
2023-03-12T02:32:27.813Z,-2.60
2023-03-12T02:34:56.830Z,-2.40
2023-03-12T02:37:23.597Z,-2.40
2023-03-12T02:39:57.297Z,-2.40
2023-03-12T02:42:24.801Z,-2.50
2023-03-12T02:44:51.615Z,-2.50
2023-03-12T02:47:18.626Z,-2.60
2023-03-12T02:49:46.435Z,-2.60
2023-03-12T02:52:13.806Z,-2.60
2023-03-12T02:54:42.054Z,-2.60
2023-03-12T02:57:08.653Z,-2.60
2023-03-12T02:59:35.340Z,-2.40
2023-03-12T03:02:04.355Z,-2.40
2023-03-12T03:04:31.920Z,-2.40
2023-03-12T03:06:58.661Z,-2.30
2023-03-12T03:09:25.758Z,-2.20
2023-03-12T03:11:53.062Z,-2.10
2023-03-12T03:14:20.554Z,-2.20
2023-03-12T03:16:50.463Z,-2.10
2023-03-12T03:19:17.586Z,-2.10
2023-03-12T03:21:44.218Z,-2.10
2023-03-12T03:24:10.962Z,-2.10
2023-03-12T03:26:37.743Z,-2.10
2023-03-12T03:29:04.898Z,-2.10
2023-03-12T03:31:31.797Z,-2.10
2023-03-12T03:33:58.663Z,-2.10
2023-03-12T03:36:25.633Z,-2.20
2023-03-12T03:39:01.512Z,-2.10
2023-03-12T03:41:29.930Z,-1.90
2023-03-12T03:43:58.473Z,-1.90
2023-03-12T03:46:25.886Z,-1.80
2023-03-12T03:48:58.253Z,-1.80
2023-03-12T03:51:25.051Z,-1.80
2023-03-12T03:53:56.986Z,-1.90
2023-03-12T03:56:23.936Z,-2.10
2023-03-12T03:58:50.825Z,-2.10
2023-03-12T04:01:20.018Z,-2.00
2023-03-12T04:03:47.941Z,-1.80
2023-03-12T04:06:14.734Z,-1.80
2023-03-12T04:08:44.069Z,-1.70
2023-03-12T04:11:17.719Z,-1.70
2023-03-12T04:13:45.803Z,-1.80
2023-03-12T04:16:15.881Z,-1.90
2023-03-12T04:18:43.715Z,-1.90
2023-03-12T04:21:13.442Z,-2.00
2023-03-12T04:23:41.166Z,-2.10
2023-03-12T04:26:09.618Z,-2.10
2023-03-12T04:28:37.385Z,-2.00
2023-03-12T04:31:07.686Z,-2.10
2023-03-12T04:33:39.944Z,-2.20
2023-03-12T04:36:08.653Z,-2.10
2023-03-12T04:38:37.238Z,-2.10
2023-03-12T04:41:11.801Z,-2.10
2023-03-12T04:43:43.633Z,-2.10
2023-03-12T04:46:11.410Z,-2.00
2023-03-12T04:48:44.740Z,-1.90
2023-03-12T04:51:12.681Z,-1.90
2023-03-12T04:53:40.386Z,-2.00
2023-03-12T04:56:09.296Z,-2.00
2023-03-12T04:58:36.852Z,-1.90
2023-03-12T05:01:05.433Z,-1.70
2023-03-12T05:03:32.750Z,-1.60
2023-03-12T05:05:59.949Z,-1.60
2023-03-12T05:08:26.589Z,-1.60
2023-03-12T05:10:53.787Z,-1.60
2023-03-12T05:13:22.596Z,-1.60
2023-03-12T05:15:52.512Z,-1.50
2023-03-12T05:18:21.282Z,-1.50
2023-03-12T05:20:57.437Z,-1.40
2023-03-12T05:23:24.446Z,-1.20
2023-03-12T05:25:51.085Z,-1.10
2023-03-12T05:28:17.842Z,-1.00
2023-03-12T05:30:44.510Z,-1.00
2023-03-12T05:33:11.411Z,-1.00
2023-03-12T05:35:38.089Z,-0.90
2023-03-12T05:38:04.848Z,-0.90
2023-03-12T05:40:31.504Z,-0.90
2023-03-12T05:42:59.472Z,-0.90
2023-03-12T05:45:27.335Z,-0.80
2023-03-12T05:47:56.112Z,-0.80
2023-03-12T05:50:22.784Z,-0.80
2023-03-12T05:52:49.505Z,-0.80
2023-03-12T05:55:16.575Z,-0.80
2023-03-12T05:57:43.335Z,-0.80
2023-03-12T06:00:13.800Z,-0.80
2023-03-12T06:02:42.489Z,-0.80
2023-03-12T06:05:11.750Z,-0.80
2023-03-12T06:07:38.820Z,-0.70
2023-03-12T06:10:06.119Z,-0.60
2023-03-12T06:12:32.785Z,-0.70
2023-03-12T06:15:00.611Z,-0.70
2023-03-12T06:17:29.554Z,-0.60
2023-03-12T06:19:56.187Z,-0.50
2023-03-12T06:22:22.853Z,-0.50
2023-03-12T06:24:49.865Z,-0.40
2023-03-12T06:27:17.619Z,-0.40
2023-03-12T06:29:47.030Z,-0.40
2023-03-12T06:32:14.490Z,-0.30
2023-03-12T06:34:41.356Z,-0.30
2023-03-12T06:37:08.004Z,-0.20
2023-03-12T06:39:34.633Z,-0.20
2023-03-12T06:42:01.370Z,-0.10
2023-03-12T06:44:28.108Z,-0.10
2023-03-12T06:46:55.271Z,-0.10
2023-03-12T06:49:22.221Z,0.00
2023-03-12T06:51:48.996Z,0.10
2023-03-12T06:54:15.843Z,0.10
2023-03-12T06:56:42.566Z,0.10
2023-03-12T06:59:09.213Z,0.10
2023-03-12T07:01:35.826Z,0.10
2023-03-12T07:04:02.725Z,0.20
2023-03-12T07:06:29.855Z,0.20
2023-03-12T07:08:56.447Z,0.20
2023-03-12T07:11:23.372Z,0.20
2023-03-12T07:13:50.074Z,0.20
2023-03-12T07:16:16.758Z,0.20
2023-03-12T07:18:43.477Z,0.20
2023-03-12T07:21:10.136Z,0.30
2023-03-12T07:23:36.719Z,0.40
2023-03-12T07:26:05.445Z,0.50
2023-03-12T07:28:32.153Z,0.60
2023-03-12T07:31:04.152Z,0.70
2023-03-12T07:33:30.888Z,0.70
2023-03-12T07:35:57.623Z,0.80
2023-03-12T07:38:24.711Z,0.70
2023-03-12T07:40:53.737Z,0.80
2023-03-12T07:43:21.833Z,0.80
2023-03-12T07:45:50.940Z,0.90
2023-03-12T07:48:19.705Z,0.90
2023-03-12T07:50:46.826Z,0.90
2023-03-12T07:53:13.484Z,0.90
2023-03-12T07:55:40.628Z,0.90
2023-03-12T07:58:07.439Z,0.90
2023-03-12T08:00:34.202Z,1.00
2023-03-12T08:03:01.083Z,1.00
2023-03-12T08:05:28.039Z,1.10
2023-03-12T08:07:55.396Z,1.20
2023-03-12T08:10:22.598Z,1.20
2023-03-12T08:12:49.794Z,1.20
2023-03-12T08:15:16.563Z,1.20
2023-03-12T08:17:43.273Z,1.20
2023-03-12T08:20:10.845Z,1.20
2023-03-12T08:22:38.896Z,1.20
2023-03-12T08:25:06.024Z,1.20
2023-03-12T08:27:33.788Z,1.30
2023-03-12T08:30:00.620Z,1.30
2023-03-12T08:32:27.351Z,1.30
2023-03-12T08:34:54.055Z,1.30
2023-03-12T08:37:20.645Z,1.30
2023-03-12T08:39:47.248Z,1.20
2023-03-12T08:42:13.842Z,1.20
2023-03-12T08:44:40.523Z,1.30
2023-03-12T08:47:07.120Z,1.30
2023-03-12T08:49:33.776Z,1.40
2023-03-12T08:52:00.583Z,1.40
2023-03-12T08:54:27.214Z,1.40
2023-03-12T08:56:53.943Z,1.40
2023-03-12T08:59:22.137Z,1.40
2023-03-12T09:01:49.053Z,1.30
2023-03-12T09:04:16.289Z,1.30
2023-03-12T09:06:43.221Z,1.30
2023-03-12T09:09:09.984Z,1.30
2023-03-12T09:11:39.577Z,1.40
2023-03-12T09:16:52.938Z,1.50
2023-03-12T09:19:20.460Z,1.50
2023-03-12T09:21:47.084Z,1.50
2023-03-12T09:24:13.677Z,1.40
2023-03-12T09:26:40.352Z,1.30
2023-03-12T09:29:07.063Z,1.10
2023-03-12T09:31:34.565Z,1.00
2023-03-12T09:34:01.174Z,0.90
2023-03-12T09:36:28.232Z,0.80
2023-03-12T09:38:57.648Z,0.80
2023-03-12T09:41:28.081Z,0.80
2023-03-12T09:44:13.399Z,0.80
2023-03-12T09:47:01.109Z,0.80
2023-03-12T09:49:33.991Z,0.80
2023-03-12T09:52:07.773Z,0.90
2023-03-12T09:54:47.424Z,0.90
2023-03-12T09:57:24.619Z,0.90
2023-03-12T09:59:52.274Z,0.90
2023-03-12T10:02:29.253Z,0.90
2023-03-12T10:05:05.745Z,0.90
2023-03-12T10:07:47.739Z,0.80
2023-03-12T10:10:22.358Z,0.70
2023-03-12T10:12:51.959Z,0.80
2023-03-12T10:15:21.456Z,0.80
2023-03-12T10:18:10.085Z,0.80
2023-03-12T10:21:01.114Z,0.80
2023-03-12T10:23:34.423Z,0.90
2023-03-12T10:26:18.287Z,0.90
2023-03-12T10:28:48.402Z,1.00
2023-03-12T10:31:30.921Z,1.00
2023-03-12T10:33:59.990Z,1.10
2023-03-12T10:36:40.147Z,1.10
2023-03-12T10:39:19.629Z,1.10
2023-03-12T10:41:47.749Z,1.20
2023-03-12T10:44:21.195Z,1.20
2023-03-12T10:47:09.616Z,1.30
2023-03-12T10:49:37.310Z,1.40
2023-03-12T10:52:05.434Z,1.30
2023-03-12T10:54:35.220Z,1.40
2023-03-12T10:57:02.290Z,1.30
2023-03-12T10:59:37.987Z,1.40
2023-03-12T11:02:29.391Z,1.30
2023-03-12T11:04:56.485Z,1.40
2023-03-12T11:07:35.165Z,1.40
2023-03-12T11:10:17.229Z,1.40
2023-03-12T11:13:21.701Z,1.50
2023-03-12T11:15:48.836Z,1.60
2023-03-12T11:18:29.126Z,1.60
2023-03-12T11:21:09.434Z,1.60
2023-03-12T11:23:39.533Z,1.60
2023-03-12T11:26:20.322Z,1.60
2023-03-12T11:28:49.869Z,1.60
2023-03-12T11:31:24.106Z,1.60
2023-03-12T11:33:54.352Z,1.60
2023-03-12T11:36:43.201Z,1.60
2023-03-12T11:40:11.208Z,1.60
2023-03-12T11:42:41.166Z,1.70
2023-03-12T11:45:14.836Z,1.70
2023-03-12T11:47:57.189Z,1.70
2023-03-12T11:50:38.712Z,1.80
2023-03-12T11:53:49.444Z,1.80
2023-03-12T11:56:16.027Z,1.80
2023-03-12T11:58:54.136Z,1.80
2023-03-12T12:01:53.368Z,1.90
2023-03-12T12:04:57.412Z,1.80
2023-03-12T12:07:41.023Z,1.80
2023-03-12T12:10:37.927Z,1.80
2023-03-12T12:13:26.677Z,1.80
2023-03-12T12:16:31.147Z,1.80
2023-03-12T12:19:26.799Z,1.80
2023-03-12T12:22:06.266Z,1.80
2023-03-12T12:24:39.433Z,1.80
2023-03-12T12:27:31.662Z,1.80
2023-03-12T12:30:04.471Z,1.80
2023-03-12T12:32:37.189Z,1.90
2023-03-12T12:35:19.649Z,1.90
2023-03-12T12:38:15.056Z,1.90
2023-03-12T12:40:51.276Z,2.00
2023-03-12T12:43:41.241Z,2.10
2023-03-12T12:46:24.835Z,2.20
2023-03-12T12:48:53.481Z,2.20
2023-03-12T12:51:25.164Z,2.30
2023-03-12T12:54:10.323Z,2.40
2023-03-12T12:56:43.504Z,2.40
2023-03-12T12:59:31.392Z,2.50
2023-03-12T13:01:59.958Z,2.60
2023-03-12T13:04:32.397Z,2.70
2023-03-12T13:07:20.117Z,2.80
2023-03-12T13:09:52.752Z,2.80
2023-03-12T13:12:25.190Z,2.90
2023-03-12T13:14:53.420Z,3.00
2023-03-12T13:17:36.527Z,3.30
2023-03-12T13:20:20.609Z,3.50
2023-03-12T13:22:58.543Z,3.60
2023-03-12T13:25:48.172Z,3.80
2023-03-12T13:28:35.870Z,3.90
2023-03-12T13:31:28.746Z,4.00
2023-03-12T13:34:19.347Z,4.10
2023-03-12T13:36:50.131Z,4.20
2023-03-12T13:39:16.673Z,4.30
2023-03-12T13:41:49.652Z,4.60
2023-03-12T13:44:38.969Z,4.70
2023-03-12T13:47:18.818Z,4.90
2023-03-12T13:50:10.439Z,5.10
2023-03-12T13:52:40.045Z,5.30
2023-03-12T13:55:26.362Z,5.40
2023-03-12T13:58:04.747Z,5.50
2023-03-12T14:00:41.544Z,5.50
2023-03-12T14:03:17.208Z,5.60
2023-03-12T14:06:13.490Z,5.60
2023-03-12T14:08:53.844Z,5.70
2023-03-12T14:11:51.614Z,5.70
2023-03-12T14:14:43.646Z,5.70
2023-03-12T14:17:24.185Z,5.80
2023-03-12T14:20:25.100Z,5.90
2023-03-12T14:23:05.647Z,5.90
2023-03-12T14:25:36.377Z,6.00
2023-03-12T14:28:10.724Z,6.00
2023-03-12T14:30:59.651Z,6.10
2023-03-12T14:33:31.734Z,6.10
2023-03-12T14:36:20.583Z,6.10
2023-03-12T14:38:49.239Z,6.20
2023-03-12T14:41:27.708Z,6.20
2023-03-12T14:43:54.577Z,6.30
2023-03-12T14:46:23.746Z,6.40
2023-03-12T14:48:52.534Z,6.40
2023-03-12T14:51:27.961Z,6.40
2023-03-12T14:53:56.219Z,6.50
2023-03-12T14:56:24.696Z,6.50
2023-03-12T14:58:52.046Z,6.50
2023-03-12T15:01:25.672Z,6.50
2023-03-12T15:04:04.536Z,6.60
2023-03-12T15:06:37.857Z,6.60
2023-03-12T15:09:06.973Z,6.70
2023-03-12T15:11:35.905Z,6.70
2023-03-12T15:14:07.105Z,6.80
2023-03-12T15:16:34.402Z,6.90
2023-03-12T15:19:03.556Z,6.90
2023-03-12T15:21:34.406Z,7.00
2023-03-12T15:24:01.298Z,7.10
2023-03-12T15:26:34.607Z,7.10
2023-03-12T15:29:03.198Z,7.10
2023-03-12T15:31:47.662Z,7.10
2023-03-12T15:34:35.042Z,7.10
2023-03-12T15:37:18.252Z,7.20
2023-03-12T15:39:48.605Z,7.20
2023-03-12T15:42:17.525Z,7.30
2023-03-12T15:44:51.935Z,7.30
2023-03-12T15:47:21.845Z,7.40
2023-03-12T15:49:53.324Z,7.40
2023-03-12T15:52:19.946Z,7.40
2023-03-12T15:55:00.937Z,7.50
2023-03-12T15:57:28.385Z,7.50
2023-03-12T16:00:17.479Z,7.50
2023-03-12T16:03:01.566Z,7.60
2023-03-12T16:05:38.843Z,7.60
2023-03-12T16:08:29.100Z,7.60
2023-03-12T16:10:56.320Z,7.60
2023-03-12T16:13:30.921Z,7.70
2023-03-12T16:15:59.043Z,7.70
2023-03-12T16:18:26.388Z,7.70
2023-03-12T16:20:53.603Z,7.70
2023-03-12T16:23:20.252Z,7.70
2023-03-12T16:25:52.844Z,7.70
2023-03-12T16:28:20.466Z,7.70
2023-03-12T16:30:47.339Z,7.70
2023-03-12T16:33:17.069Z,7.80
2023-03-12T16:35:44.705Z,7.80
2023-03-12T16:38:11.402Z,7.70
2023-03-12T16:40:42.379Z,7.80
2023-03-12T16:43:15.928Z,7.80
2023-03-12T16:45:44.901Z,7.80
2023-03-12T16:48:16.343Z,7.80
2023-03-12T16:50:50.531Z,7.90
2023-03-12T16:53:17.392Z,7.90
2023-03-12T16:56:00.701Z,7.90
2023-03-12T16:58:29.014Z,7.90
2023-03-12T17:00:56.829Z,7.90
2023-03-12T17:03:35.444Z,7.90
2023-03-12T17:06:03.067Z,7.90
2023-03-12T17:08:29.756Z,7.90
2023-03-12T17:10:57.670Z,7.90
2023-03-12T17:13:27.716Z,8.00
2023-03-12T17:15:55.695Z,8.00
2023-03-12T17:18:22.628Z,8.00
2023-03-12T17:20:51.470Z,8.00
2023-03-12T17:23:18.100Z,8.00
2023-03-12T17:25:45.102Z,8.00
2023-03-12T17:28:13.421Z,8.00
2023-03-12T17:30:40.041Z,8.10
2023-03-12T17:33:12.256Z,8.10
2023-03-12T17:35:39.827Z,8.20
2023-03-12T17:38:06.695Z,8.20
2023-03-12T17:40:33.791Z,8.20
2023-03-12T17:43:00.459Z,8.20
2023-03-12T17:45:27.473Z,8.20
2023-03-12T17:47:54.077Z,8.30
2023-03-12T17:50:20.778Z,8.30
2023-03-12T17:52:47.425Z,8.30
2023-03-12T17:55:14.188Z,8.30
2023-03-12T17:57:40.953Z,8.30
2023-03-12T18:00:12.501Z,8.30
2023-03-12T18:02:42.601Z,8.40
2023-03-12T18:05:10.813Z,8.40
2023-03-12T18:07:37.861Z,8.40
2023-03-12T18:10:07.468Z,8.40
2023-03-12T18:12:34.401Z,8.50
2023-03-12T18:15:01.113Z,8.40
2023-03-12T18:17:27.683Z,8.40
2023-03-12T18:19:54.260Z,8.40
2023-03-12T18:22:20.919Z,8.50
2023-03-12T18:24:47.794Z,8.40
2023-03-12T18:27:14.445Z,8.50
2023-03-12T18:29:41.240Z,8.40
2023-03-12T18:32:08.594Z,8.40
2023-03-12T18:34:35.774Z,8.50
2023-03-12T18:37:02.423Z,8.50
2023-03-12T18:39:29.200Z,8.40
2023-03-12T18:41:55.896Z,8.50
2023-03-12T18:44:22.735Z,8.50
2023-03-12T18:46:51.569Z,8.40
2023-03-12T18:49:18.309Z,8.40
2023-03-12T18:51:45.072Z,8.40
2023-03-12T18:54:12.540Z,8.50
2023-03-12T18:56:40.660Z,8.40
2023-03-12T18:59:09.596Z,8.40
2023-03-12T19:01:36.916Z,8.40
2023-03-12T19:04:03.768Z,8.40
2023-03-12T19:06:37.815Z,8.40
2023-03-12T19:09:14.845Z,8.40
2023-03-12T19:11:41.483Z,8.40
2023-03-12T19:14:08.094Z,8.40
2023-03-12T19:16:34.829Z,8.30
2023-03-12T19:19:01.524Z,8.40
2023-03-12T19:21:28.357Z,8.40
2023-03-12T19:23:54.995Z,8.40
2023-03-12T19:26:21.907Z,8.30
2023-03-12T19:28:48.530Z,8.40
2023-03-12T19:31:15.456Z,8.40
2023-03-12T19:33:42.960Z,8.40
2023-03-12T19:36:10.145Z,8.40
2023-03-12T19:38:36.882Z,8.40
2023-03-12T19:41:03.551Z,8.40
2023-03-12T19:43:30.171Z,8.40
2023-03-12T19:45:56.881Z,8.40
2023-03-12T19:48:25.187Z,8.40
2023-03-12T19:50:53.477Z,8.40
2023-03-12T19:53:20.140Z,8.40
2023-03-12T19:55:48.356Z,8.40
2023-03-12T19:58:15.752Z,8.40
2023-03-12T20:00:43.192Z,8.50
2023-03-12T20:03:10.154Z,8.50
2023-03-12T20:05:36.842Z,8.50
2023-03-12T20:08:03.618Z,8.50
2023-03-12T20:10:32.177Z,8.50
2023-03-12T20:12:58.895Z,8.50
2023-03-12T20:15:26.208Z,8.60
2023-03-12T20:17:54.629Z,8.60
2023-03-12T20:20:21.314Z,8.50
2023-03-12T20:22:47.961Z,8.60
2023-03-12T20:25:14.696Z,8.50
2023-03-12T20:27:41.354Z,8.50
2023-03-12T20:30:08.880Z,8.50
2023-03-12T20:32:35.756Z,8.50
2023-03-12T20:35:02.501Z,8.60
2023-03-12T20:37:29.151Z,8.60
2023-03-12T20:39:55.789Z,8.60
2023-03-12T20:42:22.473Z,8.60
2023-03-12T20:44:49.050Z,8.60
2023-03-12T20:47:15.644Z,8.60
2023-03-12T20:49:42.239Z,8.70
2023-03-12T20:52:08.851Z,8.60
2023-03-12T20:54:35.653Z,8.60
2023-03-12T20:57:02.300Z,8.60
2023-03-12T20:59:28.884Z,8.60
2023-03-12T21:01:55.533Z,8.60
2023-03-12T21:04:22.272Z,8.60
2023-03-12T21:06:51.473Z,8.60
2023-03-12T21:09:18.490Z,8.60
2023-03-12T21:11:45.071Z,8.70
2023-03-12T21:14:11.654Z,8.60
2023-03-12T21:16:38.297Z,8.60
2023-03-12T21:19:04.940Z,8.60
2023-03-12T21:21:32.069Z,8.60
2023-03-12T21:23:58.711Z,8.60
2023-03-12T21:26:25.516Z,8.50
2023-03-12T21:28:52.094Z,8.60
2023-03-12T21:31:18.919Z,8.60
2023-03-12T21:33:45.703Z,8.60
2023-03-12T21:36:14.216Z,8.60
2023-03-12T21:38:42.856Z,8.60
2023-03-12T21:41:15.389Z,8.60
2023-03-12T21:43:43.465Z,8.60
2023-03-12T21:46:15.742Z,8.70
2023-03-12T21:48:47.273Z,8.70
2023-03-12T21:51:16.731Z,8.70
2023-03-12T21:53:43.746Z,8.70
2023-03-12T21:56:11.136Z,8.70
2023-03-12T21:58:37.846Z,8.60
2023-03-12T22:01:14.271Z,8.60
2023-03-12T22:03:42.752Z,8.60
2023-03-12T22:06:10.396Z,8.60
2023-03-12T22:08:37.701Z,8.60
2023-03-12T22:11:05.838Z,8.60
2023-03-12T22:13:32.760Z,8.60
2023-03-12T22:16:03.241Z,8.60
2023-03-12T22:18:30.134Z,8.60
2023-03-12T22:21:03.223Z,8.60
2023-03-12T22:23:30.155Z,8.60
2023-03-12T22:26:00.792Z,8.60
2023-03-12T22:28:27.434Z,8.60
2023-03-12T22:30:59.301Z,8.70
2023-03-12T22:33:26.881Z,8.80
2023-03-12T22:35:53.793Z,8.80
2023-03-12T22:38:21.199Z,8.70
2023-03-12T22:40:47.947Z,8.70
2023-03-12T22:43:14.963Z,8.80
2023-03-12T22:45:42.197Z,8.70
2023-03-12T22:48:08.974Z,8.70
2023-03-12T22:50:35.619Z,8.70
2023-03-12T22:53:02.244Z,8.70
2023-03-12T22:55:28.892Z,8.70
2023-03-12T22:57:55.472Z,8.80
2023-03-12T23:00:22.847Z,8.80
2023-03-12T23:02:50.508Z,8.90
2023-03-12T23:05:17.239Z,8.90
2023-03-12T23:07:44.256Z,8.90
2023-03-12T23:10:11.302Z,8.80
2023-03-12T23:12:37.941Z,8.80
2023-03-12T23:15:05.457Z,8.90
2023-03-12T23:17:32.052Z,8.80
2023-03-12T23:19:59.005Z,8.80
2023-03-12T23:22:25.688Z,8.80
2023-03-12T23:24:52.494Z,8.90
2023-03-12T23:27:19.161Z,8.90
2023-03-12T23:29:45.832Z,8.90
2023-03-12T23:32:12.865Z,8.90
2023-03-12T23:34:39.604Z,8.90
2023-03-12T23:37:07.080Z,9.00
2023-03-12T23:39:39.387Z,9.00
2023-03-12T23:42:15.265Z,8.90
2023-03-12T23:44:41.980Z,8.90
2023-03-12T23:47:08.594Z,8.90
2023-03-12T23:49:35.225Z,8.90
2023-03-12T23:52:01.873Z,8.90
2023-03-12T23:54:28.461Z,8.90
2023-03-12T23:56:56.105Z,8.90
2023-03-12T23:59:23.035Z,8.90
